Aérodrome :
LOGIN :

S'inscrire | Disclaimer

   EN    FR    IT 

 










Légende :    VFR   VFR Marginal   IFR   IFR Intensif   IFR Très Intensif
Visi : 
Plafond : 
>= 8 km
>= 3000ft
5 à 8 km
1000 à 3000 ft
1500m à 5 km
500 à 1000 ft
800 à 1500m
200 à 500 ft
< 800m
< 200 ft
Symboles :   Orages  Brouillard  Fortes neiges  Fortes précipitations  Vent > 20 kt
SIGMETs :   Divers  Orages  Givrage  Turbulence  Onde Orograph.  Cendres Volcan.






- Altitude de l'aérodrome : 313 ft
- Code IATA : LEH


LFOH - Le Havre Octeville

DERNIER METAR :
  • 130930Z AUTO 30030G48KT 9999 SCT035 SCT044 BKN058 09/02 Q0985 NOSIG

METARs EXPIRÉS :
  • 130900Z AUTO 30028G52KT 270V340 9999 SCT035 BKN044 BKN060 09/03 Q0984 TEMPO 4000 SHRA BKN030CB
  • 130830Z AUTO 31029G42KT 9999 SCT035 BKN044 BKN052 09/03 Q0983 TEMPO 29030G55KT 4000 SHRA BKN030CB
  • 130800Z AUTO 30031G46KT 9999 BKN034/// OVC042/// ///TCU 09/03 Q0982 TEMPO 4000 SHRA BKN030CB
  • 130730Z AUTO 31029G45KT 280V340 9999 BKN027/// BKN039/// OVC046/// ///CB 09/03 Q0981 TEMPO 29030G55KT 4000 SHRA
  • 130700Z AUTO 30031G51KT 9999 BKN028/// OVC034/// ///TCU 09/04 Q0980 TEMPO 4000 SHRA BKN030CB

TAF TAF LFOH
Valide du 13 à 06h jusqu'au 14 à 06h UTC


130500Z 1306/1406 29025G45KT 9999 BKN030
TEMPO 1306/1310 29030G55KT 4000 SHRA BKN030CB
BECMG 1316/1319 23020G35KT
TEMPO 1319/1322 4000 RA OVC010
BECMG 1321/1323 27025G45KT
TEMPO 1323/1404 27035G55KT 4000 SHRA
ATIS : +33 2 35 54 64 93



MET'MAP, la Météo Aéronautique d'un coup d'oeil ! - Copyright ORBIFLY Décembre 2007 - Disclaimer

ORBIFLY MET'MAP TEAM :

Programmation & Développement : Alexandra Zaïnal
Sur une idée originale de : Baudouin d'Aumeries
Assistance à la programmation : Marc-Olivier Méhu
Soutien technique & logistique : Manuel Goepfert

Contact : metmap@orbifly.com




SOURCES & CREDITS :

   NOAA